Terminal Aerodrome Forecast
Issued by NWS Portland, OR

Home | Current Version | Previous Version | Text Only | Print | Product List | Glossary On
Versions: 1 2 3 4 5 6 7 8 9 10 11 12 13 14 15 16 17 18 19 20 21 22
000
FTUS46 KPQR 180130 AAA
TAFTTD
TAF AMD
KTTD 180130Z 1802/1824 22010KT P6SM -RA SCT025 OVC040
      TEMPO 1802/1803 BKN025
     FM180300 28007KT P6SM VCSH BKN025 BKN040
     FM181200 27003KT 5SM BR BKN015
     FM181700 24003KT P6SM SCT040=

USA.gov is the U.S. government's official web portal to all federal, state and local government web resources and services.